Time;durP1;ratioP1;P1;durP2;ratioP2;P2;SDS_P1;SDS_P2;PMS_P1;PMS_P2;Temp;Humidity;BMP_temperature;BMP_pressure;BME280_temperature;BME280_humidity;BME280_pressure;Samples;Min_cycle;Max_cycle;Signal;HPM_P1;HPM_P2
2022/11/28 00:00:16;;;;;;;;;;;16.00;78.10;;;;;;5098234;28;19951;-11
2022/11/28 00:02:42;;;;;;;;;;;16.00;78.10;;;;;;5098077;28;20213;-12
2022/11/28 00:05:12;;;;;;;;;;;16.00;77.80;;;;;;5098963;28;20258;-9
2022/11/28 00:07:37;;;;;;;;;;;16.00;77.80;;;;;;5080731;28;19909;-11
2022/11/28 00:10:13;;;;;;;;;;;16.00;77.90;;;;;;5081212;28;20280;-9
2022/11/28 00:12:39;;;;;;;;;;;16.00;77.70;;;;;;5100085;28;20006;-10
2022/11/28 00:15:05;;;;;;;;;;;16.00;77.80;;;;;;5102796;28;19955;-12
2022/11/28 00:17:30;;;;;;;;;;;15.90;77.70;;;;;;5101829;28;20277;-12
2022/11/28 00:20:32;;;;;;;;;;;15.90;77.90;;;;;;5101973;28;20270;-11
2022/11/28 00:22:58;;;;;;;;;;;15.90;78.10;;;;;;5091834;28;19912;-12
2022/11/28 00:25:23;;;;;;;;;;;15.90;78.10;;;;;;5102428;28;19919;-10
2022/11/28 00:27:49;;;;;;;;;;;15.90;78.10;;;;;;5084800;28;19912;-11
2022/11/28 00:30:49;;;;;;;;;;;15.90;78.20;;;;;;5112124;28;19959;-12
2022/11/28 00:33:15;;;;;;;;;;;15.90;78.20;;;;;;5104991;28;19922;-10
2022/11/28 00:35:40;;;;;;;;;;;15.90;78.20;;;;;;5122895;28;19907;-10
2022/11/28 00:38:06;;;;;;;;;;;15.90;78.30;;;;;;5122225;28;20015;-10
2022/11/28 00:43:50;;;;;;;;;;;15.90;78.50;;;;;;5102016;28;19923;-10
2022/11/28 00:46:16;;;;;;;;;;;15.90;78.30;;;;;;5102410;28;19938;-10
2022/11/28 00:48:42;;;;;;;;;;;15.90;78.40;;;;;;5102070;28;19942;-10
2022/11/28 00:51:12;;;;;;;;;;;15.90;78.50;;;;;;5084245;28;19927;-11
2022/11/28 00:53:40;;;;;;;;;;;15.80;78.40;;;;;;5084607;28;19918;-9
2022/11/28 00:56:06;;;;;;;;;;;15.80;78.20;;;;;;5086420;28;19920;-10
2022/11/28 01:01:58;;;;;;;;;;;15.80;78.20;;;;;;5121640;28;20075;-9
2022/11/28 01:04:24;;;;;;;;;;;15.80;78.30;;;;;;5104388;28;19907;-12
2022/11/28 01:06:49;;;;;;;;;;;15.80;78.40;;;;;;5103607;28;19918;-10
2022/11/28 01:09:19;;;;;;;;;;;15.70;78.30;;;;;;5104328;28;19940;-10
2022/11/28 01:12:04;;;;;;;;;;;15.80;78.40;;;;;;5121621;28;19912;-13
2022/11/28 01:14:30;;;;;;;;;;;15.80;78.40;;;;;;5121922;28;19911;-12
2022/11/28 01:16:56;;;;;;;;;;;15.70;78.30;;;;;;5121332;28;19971;-12
2022/11/28 01:19:21;;;;;;;;;;;15.70;78.30;;;;;;5103570;28;19916;-9
2022/11/28 01:21:47;;;;;;;;;;;15.70;78.50;;;;;;5100633;28;20050;-10
2022/11/28 01:24:13;;;;;;;;;;;15.70;78.60;;;;;;5100994;28;19908;-10
2022/11/28 01:26:39;;;;;;;;;;;15.70;78.60;;;;;;5083674;28;20277;-11
2022/11/28 01:29:09;;;;;;;;;;;15.70;78.60;;;;;;5100554;28;19908;-10
2022/11/28 01:31:35;;;;;;;;;;;15.70;78.70;;;;;;5100969;28;19934;-11
2022/11/28 01:34:01;;;;;;;;;;;15.70;78.80;;;;;;5083116;28;20517;-9
2022/11/28 01:36:26;;;;;;;;;;;15.70;78.80;;;;;;5082870;28;19977;-9
2022/11/28 01:38:57;;;;;;;;;;;15.70;78.90;;;;;;5100841;28;19940;-11
2022/11/28 01:41:25;;;;;;;;;;;15.70;79.00;;;;;;5083234;28;19908;-11
2022/11/28 01:43:59;;;;;;;;;;;15.70;79.10;;;;;;5082718;28;19927;-11
2022/11/28 01:46:25;;;;;;;;;;;15.70;79.10;;;;;;5083066;28;19909;-10
2022/11/28 01:48:51;;;;;;;;;;;15.60;79.20;;;;;;5082924;28;19973;-10
2022/11/28 01:51:16;;;;;;;;;;;15.60;79.50;;;;;;5100326;28;19916;-11
2022/11/28 01:53:44;;;;;;;;;;;15.60;79.50;;;;;;5100385;28;19908;-11
2022/11/28 01:56:14;;;;;;;;;;;15.60;79.70;;;;;;5082938;28;20272;-10
2022/11/28 01:58:41;;;;;;;;;;;15.60;79.70;;;;;;5082259;28;19919;-11
2022/11/28 02:01:14;;;;;;;;;;;15.60;79.80;;;;;;5082736;28;20289;-12
2022/11/28 02:03:44;;;;;;;;;;;15.60;79.80;;;;;;5081969;28;19966;-13
2022/11/28 02:06:11;;;;;;;;;;;15.60;79.80;;;;;;5099911;28;19916;-10
2022/11/28 02:08:37;;;;;;;;;;;15.60;79.80;;;;;;5099870;28;19908;-10
2022/11/28 02:11:03;;;;;;;;;;;15.50;79.80;;;;;;5099113;28;19912;-9
2022/11/28 02:13:28;;;;;;;;;;;15.60;80.00;;;;;;5099968;28;19919;-9
2022/11/28 02:16:12;;;;;;;;;;;15.60;80.00;;;;;;5082847;28;19916;-10
2022/11/28 02:19:06;;;;;;;;;;;15.60;80.00;;;;;;5099594;28;19908;-11
2022/11/28 02:21:31;;;;;;;;;;;15.60;80.00;;;;;;5061260;28;19938;-12
2022/11/28 02:24:38;;;;;;;;;;;15.60;80.00;;;;;;5099983;28;20187;-11
2022/11/28 02:27:12;;;;;;;;;;;15.60;80.00;;;;;;5099507;28;19940;-12
2022/11/28 02:29:44;;;;;;;;;;;15.60;80.20;;;;;;5082256;28;19934;-11
2022/11/28 02:32:26;;;;;;;;;;;15.60;80.20;;;;;;5100038;28;19920;-12
2022/11/28 02:34:52;;;;;;;;;;;15.60;80.20;;;;;;5099600;28;20155;-12
2022/11/28 02:37:29;;;;;;;;;;;15.50;80.20;;;;;;5081522;28;20286;-11
2022/11/28 02:40:13;;;;;;;;;;;15.60;80.30;;;;;;5099325;28;19908;-11
2022/11/28 02:42:44;;;;;;;;;;;15.50;80.20;;;;;;5082050;28;19948;-11
2022/11/28 02:45:17;;;;;;;;;;;15.60;80.30;;;;;;5081448;28;19951;-9
2022/11/28 02:47:47;;;;;;;;;;;15.60;80.30;;;;;;5099363;28;19969;-9
2022/11/28 02:50:18;;;;;;;;;;;15.60;80.40;;;;;;5099062;28;19966;-9
2022/11/28 02:52:45;;;;;;;;;;;15.50;80.20;;;;;;5107291;28;19916;-10
2022/11/28 02:55:27;;;;;;;;;;;15.60;80.40;;;;;;5120012;28;19919;-9
2022/11/28 02:57:53;;;;;;;;;;;15.60;80.40;;;;;;5104692;28;19912;-12
2022/11/28 03:00:35;;;;;;;;;;;15.60;80.40;;;;;;5099774;28;19918;-10
2022/11/28 03:03:33;;;;;;;;;;;15.50;80.30;;;;;;5099410;28;19908;-11
2022/11/28 03:06:17;;;;;;;;;;;15.60;80.40;;;;;;5099115;28;19908;-10
2022/11/28 03:08:52;;;;;;;;;;;15.50;80.40;;;;;;5081507;28;19969;-10
2022/11/28 03:11:40;;;;;;;;;;;15.50;80.50;;;;;;5081345;28;19912;-11
2022/11/28 03:14:21;;;;;;;;;;;15.50;80.60;;;;;;5071093;28;19919;-10
2022/11/28 03:17:07;;;;;;;;;;;15.60;80.60;;;;;;5094400;28;20193;-10
2022/11/28 03:19:38;;;;;;;;;;;15.50;80.50;;;;;;5078908;28;19970;-10
2022/11/28 03:22:22;;;;;;;;;;;15.50;80.60;;;;;;5099217;28;20452;-10
2022/11/28 03:24:52;;;;;;;;;;;15.50;80.40;;;;;;5098997;28;20336;-12
2022/11/28 03:27:48;;;;;;;;;;;15.50;80.60;;;;;;5081015;28;19909;-9
2022/11/28 03:30:18;;;;;;;;;;;15.50;80.60;;;;;;5081243;28;20167;-12
2022/11/28 03:32:46;;;;;;;;;;;15.50;80.70;;;;;;5080849;28;19919;-9
2022/11/28 03:35:14;;;;;;;;;;;15.50;80.60;;;;;;5081536;28;19908;-10
2022/11/28 03:37:46;;;;;;;;;;;15.50;80.60;;;;;;5098520;28;19908;-9
2022/11/28 03:40:15;;;;;;;;;;;15.50;80.70;;;;;;5098802;28;20185;-13
2022/11/28 03:42:44;;;;;;;;;;;15.50;80.80;;;;;;5080412;28;19908;-10
2022/11/28 03:45:17;;;;;;;;;;;15.50;80.80;;;;;;5081251;28;19915;-12
2022/11/28 03:47:54;;;;;;;;;;;15.50;80.80;;;;;;5081075;28;19969;-10
2022/11/28 03:50:23;;;;;;;;;;;15.40;80.80;;;;;;5080916;28;20265;-11
2022/11/28 03:52:52;;;;;;;;;;;15.40;81.00;;;;;;5098220;28;19943;-10
2022/11/28 03:55:21;;;;;;;;;;;15.40;81.10;;;;;;5080652;28;19919;-12
2022/11/28 03:58:04;;;;;;;;;;;15.40;81.30;;;;;;5080595;28;20293;-11
2022/11/28 04:00:32;;;;;;;;;;;15.30;81.30;;;;;;5080782;28;19995;-9
2022/11/28 04:03:06;;;;;;;;;;;15.30;81.40;;;;;;5098288;28;19919;-11
2022/11/28 04:05:41;;;;;;;;;;;15.30;81.60;;;;;;5098369;28;19908;-10
2022/11/28 04:08:09;;;;;;;;;;;15.40;81.80;;;;;;5097478;28;19913;-9
2022/11/28 04:10:51;;;;;;;;;;;16.00;78.60;;;;;;5080725;28;20274;-11
2022/11/28 04:13:22;;;;;;;;;;;16.90;73.20;;;;;;5098016;28;19912;-10
2022/11/28 04:15:47;;;;;;;;;;;17.40;69.70;;;;;;5098338;28;20297;-10
2022/11/28 04:18:28;;;;;;;;;;;17.60;68.20;;;;;;5080305;28;19908;-11
2022/11/28 04:21:02;;;;;;;;;;;17.70;67.00;;;;;;5097959;28;19920;-11
2022/11/28 04:23:28;;;;;;;;;;;17.90;66.10;;;;;;5098069;28;19920;-10
2022/11/28 04:26:05;;;;;;;;;;;18.10;65.10;;;;;;5097432;28;19961;-10
2022/11/28 04:28:33;;;;;;;;;;;18.10;64.30;;;;;;5080227;28;19919;-12
2022/11/28 04:30:59;;;;;;;;;;;18.20;64.00;;;;;;5097441;28;19912;-11
2022/11/28 04:33:27;;;;;;;;;;;18.20;63.80;;;;;;5097512;28;19961;-10
2022/11/28 04:35:56;;;;;;;;;;;18.10;63.60;;;;;;5079885;28;20193;-12
2022/11/28 04:38:23;;;;;;;;;;;18.20;63.60;;;;;;5079954;28;20297;-14
2022/11/28 04:40:52;;;;;;;;;;;18.10;63.60;;;;;;5079997;28;19908;-12
2022/11/28 04:43:27;;;;;;;;;;;18.00;64.00;;;;;;5097519;28;19908;-10
2022/11/28 04:48:39;;;;;;;;;;;17.90;64.70;;;;;;5097289;28;20255;-11
2022/11/28 04:51:23;;;;;;;;;;;17.70;65.00;;;;;;5096921;28;20301;-13
2022/11/28 04:53:55;;;;;;;;;;;17.70;65.40;;;;;;5097673;28;19908;-10
2022/11/28 04:56:25;;;;;;;;;;;17.60;65.80;;;;;;5079594;28;19915;-11
2022/11/28 04:58:51;;;;;;;;;;;17.50;66.20;;;;;;5099373;28;19915;-13
2022/11/28 05:01:19;;;;;;;;;;;17.40;66.70;;;;;;5083073;28;19913;-12
2022/11/28 05:04:16;;;;;;;;;;;17.40;67.50;;;;;;5101495;28;20057;-10
2022/11/28 05:06:42;;;;;;;;;;;17.30;67.80;;;;;;5100842;28;19972;-11
2022/11/28 05:09:09;;;;;;;;;;;17.20;68.40;;;;;;5100921;28;20003;-11
2022/11/28 05:11:34;;;;;;;;;;;17.10;68.70;;;;;;5083244;28;19912;-12
2022/11/28 05:14:07;;;;;;;;;;;17.10;69.10;;;;;;5083552;28;19909;-11
2022/11/28 05:16:33;;;;;;;;;;;17.00;69.50;;;;;;5083760;28;19908;-10
2022/11/28 05:18:58;;;;;;;;;;;16.90;69.90;;;;;;5083185;28;19908;-9
2022/11/28 05:21:24;;;;;;;;;;;16.80;70.30;;;;;;5099695;28;19915;-11
2022/11/28 05:23:52;;;;;;;;;;;16.70;70.70;;;;;;5116283;28;20024;-12
2022/11/28 05:26:19;;;;;;;;;;;16.70;71.10;;;;;;5082988;28;19916;-11
2022/11/28 05:28:45;;;;;;;;;;;16.60;71.70;;;;;;5100781;28;19908;-11
2022/11/28 05:31:11;;;;;;;;;;;16.50;72.10;;;;;;5082076;28;19912;-10
2022/11/28 05:33:56;;;;;;;;;;;16.40;72.70;;;;;;5083028;28;19918;-10
2022/11/28 05:36:22;;;;;;;;;;;16.40;73.00;;;;;;5099998;28;19908;-10
2022/11/28 05:38:48;;;;;;;;;;;16.30;73.60;;;;;;5100137;28;19977;-9
2022/11/28 05:41:17;;;;;;;;;;;16.20;74.00;;;;;;5099408;28;19912;-10
2022/11/28 05:44:02;;;;;;;;;;;16.20;74.50;;;;;;5119940;28;19907;-11
2022/11/28 05:46:28;;;;;;;;;;;16.10;74.90;;;;;;5119436;28;19912;-10
2022/11/28 05:48:53;;;;;;;;;;;16.10;75.10;;;;;;5120110;28;19951;-11
2022/11/28 05:51:19;;;;;;;;;;;16.10;75.40;;;;;;5101322;28;19982;-12
2022/11/28 05:53:45;;;;;;;;;;;16.00;75.70;;;;;;5095317;28;19911;-10
2022/11/28 05:56:11;;;;;;;;;;;16.00;75.60;;;;;;5081556;28;20185;-12
2022/11/28 05:58:37;;;;;;;;;;;16.10;75.50;;;;;;5081263;28;19919;-11
2022/11/28 06:01:11;;;;;;;;;;;16.10;75.30;;;;;;5092036;28;19908;-11
2022/11/28 06:03:37;;;;;;;;;;;16.20;74.60;;;;;;5098612;28;20252;-12
2022/11/28 06:06:03;;;;;;;;;;;16.50;73.50;;;;;;5089483;28;19912;-9
2022/11/28 06:08:28;;;;;;;;;;;16.80;71.60;;;;;;5084513;28;19923;-15
2022/11/28 06:10:57;;;;;;;;;;;17.00;69.90;;;;;;5109707;28;19919;-11
2022/11/28 06:13:23;;;;;;;;;;;17.30;68.70;;;;;;5096164;28;19907;-10
2022/11/28 06:15:49;;;;;;;;;;;17.50;67.50;;;;;;5119333;28;19908;-10
2022/11/28 06:18:14;;;;;;;;;;;17.60;66.40;;;;;;5108148;28;19912;-11
2022/11/28 06:20:41;;;;;;;;;;;17.60;65.80;;;;;;5091995;28;19908;-9
2022/11/28 06:23:07;;;;;;;;;;;17.70;65.50;;;;;;5101623;28;20427;-12
2022/11/28 06:25:32;;;;;;;;;;;17.60;66.10;;;;;;5101384;28;19908;-10
2022/11/28 06:27:58;;;;;;;;;;;17.60;65.60;;;;;;5098372;28;19915;-11
2022/11/28 06:30:25;;;;;;;;;;;17.60;65.80;;;;;;5082322;28;19916;-10
2022/11/28 06:32:50;;;;;;;;;;;17.50;66.10;;;;;;5106719;28;19924;-11
2022/11/28 06:35:16;;;;;;;;;;;17.40;66.40;;;;;;5080981;28;19923;-9
2022/11/28 06:37:41;;;;;;;;;;;17.20;66.80;;;;;;5079862;28;19987;-12
2022/11/28 06:40:13;;;;;;;;;;;17.10;67.50;;;;;;5097661;28;19974;-11
2022/11/28 06:42:39;;;;;;;;;;;17.10;68.10;;;;;;5080545;28;19916;-12
2022/11/28 06:45:05;;;;;;;;;;;17.00;69.30;;;;;;5079724;28;19919;-11
2022/11/28 06:47:30;;;;;;;;;;;17.00;71.20;;;;;;5089662;28;19955;-11
2022/11/28 06:49:56;;;;;;;;;;;16.90;71.50;;;;;;5086655;28;20168;-11
2022/11/28 06:52:21;;;;;;;;;;;16.80;72.10;;;;;;5087129;28;20034;-11
2022/11/28 06:54:47;;;;;;;;;;;16.70;73.00;;;;;;5087523;28;20197;-9
2022/11/28 06:57:13;;;;;;;;;;;16.60;74.60;;;;;;5088565;28;19977;-11
2022/11/28 06:59:38;;;;;;;;;;;16.50;75.60;;;;;;5086769;28;20074;-11
2022/11/28 07:02:05;;;;;;;;;;;16.50;76.40;;;;;;5069516;28;19919;-10
2022/11/28 07:04:31;;;;;;;;;;;16.40;76.40;;;;;;5072016;28;19918;-10
2022/11/28 07:06:56;;;;;;;;;;;16.40;76.90;;;;;;5090291;28;19911;-12
2022/11/28 07:09:22;;;;;;;;;;;16.30;77.40;;;;;;5091433;28;19948;-10
2022/11/28 07:11:48;;;;;;;;;;;16.30;77.70;;;;;;5090366;28;19912;-12
2022/11/28 07:14:13;;;;;;;;;;;16.20;77.90;;;;;;5090687;28;20081;-12
2022/11/28 07:16:39;;;;;;;;;;;16.20;78.40;;;;;;5089418;28;20230;-11
2022/11/28 07:19:04;;;;;;;;;;;16.10;78.30;;;;;;5089031;28;19908;-11
2022/11/28 07:21:30;;;;;;;;;;;16.10;79.10;;;;;;5071651;28;19908;-10
2022/11/28 07:23:57;;;;;;;;;;;16.10;78.70;;;;;;5089704;28;19908;-11
2022/11/28 07:26:22;;;;;;;;;;;16.10;78.90;;;;;;5087294;28;19923;-9
2022/11/28 07:28:48;;;;;;;;;;;16.00;79.20;;;;;;5085910;28;20061;-12
2022/11/28 07:31:24;;;;;;;;;;;16.00;79.20;;;;;;5067262;28;19969;-12
2022/11/28 07:33:50;;;;;;;;;;;16.00;79.20;;;;;;5067757;28;20167;-11
2022/11/28 07:36:17;;;;;;;;;;;16.10;79.20;;;;;;5067805;28;19908;-10
2022/11/28 07:38:47;;;;;;;;;;;16.10;79.10;;;;;;5067166;28;19908;-11
2022/11/28 07:41:13;;;;;;;;;;;16.20;78.80;;;;;;5083850;28;19908;-11
2022/11/28 07:43:39;;;;;;;;;;;16.20;78.50;;;;;;5067058;28;19931;-11
2022/11/28 07:46:06;;;;;;;;;;;16.30;78.20;;;;;;5087645;28;20019;-11
2022/11/28 07:48:32;;;;;;;;;;;16.40;77.90;;;;;;5070501;28;19919;-9
2022/11/28 07:50:58;;;;;;;;;;;16.40;77.20;;;;;;5068460;28;19920;-10
2022/11/28 07:53:23;;;;;;;;;;;16.50;77.30;;;;;;5087586;28;19917;-10
2022/11/28 07:55:49;;;;;;;;;;;16.60;76.80;;;;;;5088413;28;19908;-9
2022/11/28 07:58:14;;;;;;;;;;;16.60;76.70;;;;;;5087086;28;19908;-11
2022/11/28 08:00:40;;;;;;;;;;;16.70;76.40;;;;;;5067777;28;19916;-11
2022/11/28 08:03:06;;;;;;;;;;;16.60;76.00;;;;;;5086721;28;20217;-12
2022/11/28 08:05:31;;;;;;;;;;;16.70;76.00;;;;;;5068375;28;19908;-10
2022/11/28 08:07:57;;;;;;;;;;;16.60;76.10;;;;;;5067737;28;19919;-11
2022/11/28 08:10:23;;;;;;;;;;;16.60;76.10;;;;;;5085919;28;20164;-11
2022/11/28 08:12:48;;;;;;;;;;;16.60;76.10;;;;;;5067836;28;19912;-12
2022/11/28 08:15:14;;;;;;;;;;;16.60;76.50;;;;;;5086887;28;19967;-10
2022/11/28 08:17:40;;;;;;;;;;;16.60;76.60;;;;;;5088760;28;19915;-10
2022/11/28 08:20:06;;;;;;;;;;;16.60;76.70;;;;;;5089833;28;19935;-9
2022/11/28 08:22:31;;;;;;;;;;;16.60;76.70;;;;;;5089446;28;19908;-11
2022/11/28 08:24:57;;;;;;;;;;;16.50;76.50;;;;;;5072420;28;19973;-12
2022/11/28 08:27:23;;;;;;;;;;;16.50;76.50;;;;;;5089644;28;19943;-10
2022/11/28 08:29:48;;;;;;;;;;;16.50;76.60;;;;;;5088328;28;19943;-12
2022/11/28 08:32:14;;;;;;;;;;;16.50;76.70;;;;;;5071953;28;20251;-11
2022/11/28 08:34:39;;;;;;;;;;;16.40;76.70;;;;;;5091768;28;20060;-10
2022/11/28 08:37:05;;;;;;;;;;;16.40;76.80;;;;;;5089855;28;20318;-10
2022/11/28 08:39:32;;;;;;;;;;;16.40;77.10;;;;;;5071474;28;19942;-11
2022/11/28 08:41:58;;;;;;;;;;;16.30;77.30;;;;;;5088759;28;19952;-11
2022/11/28 08:44:24;;;;;;;;;;;16.30;77.60;;;;;;5089224;28;19955;-11
2022/11/28 08:46:50;;;;;;;;;;;16.20;77.80;;;;;;5071268;28;20262;-11
2022/11/28 08:49:16;;;;;;;;;;;16.20;78.10;;;;;;5071742;28;19908;-12
2022/11/28 08:51:41;;;;;;;;;;;16.20;78.40;;;;;;5088600;28;19916;-11
2022/11/28 08:54:07;;;;;;;;;;;16.10;78.50;;;;;;5089885;28;20277;-10
2022/11/28 08:56:33;;;;;;;;;;;16.10;78.90;;;;;;5071131;28;19908;-10
2022/11/28 08:58:59;;;;;;;;;;;16.00;78.60;;;;;;5072548;28;19920;-11
2022/11/28 09:01:25;;;;;;;;;;;16.10;78.90;;;;;;5091580;28;19908;-11
2022/11/28 09:03:51;;;;;;;;;;;16.10;78.90;;;;;;5090070;28;19908;-12
2022/11/28 09:06:17;;;;;;;;;;;16.20;78.80;;;;;;5086593;28;19908;-11
2022/11/28 09:08:43;;;;;;;;;;;16.20;78.30;;;;;;5070046;28;19919;-10
2022/11/28 09:11:09;;;;;;;;;;;16.30;78.20;;;;;;5089055;28;19919;-11
2022/11/28 09:13:35;;;;;;;;;;;16.40;77.60;;;;;;5089801;28;19912;-10
2022/11/28 09:16:02;;;;;;;;;;;16.50;77.00;;;;;;5069301;28;20585;-12
2022/11/28 09:18:28;;;;;;;;;;;16.60;76.50;;;;;;5090124;28;19919;-10
2022/11/28 09:20:57;;;;;;;;;;;16.60;75.60;;;;;;5071755;28;20209;-10
2022/11/28 09:23:23;;;;;;;;;;;16.70;75.20;;;;;;5092473;28;19908;-10
2022/11/28 09:25:49;;;;;;;;;;;16.80;74.60;;;;;;5090626;28;19908;-11
2022/11/28 09:28:15;;;;;;;;;;;16.90;74.10;;;;;;5073403;28;19912;-10
2022/11/28 09:30:40;;;;;;;;;;;17.00;73.80;;;;;;5090509;28;19993;-11
2022/11/28 09:33:06;;;;;;;;;;;17.00;73.40;;;;;;5090439;28;19925;-12
2022/11/28 09:35:32;;;;;;;;;;;17.00;73.30;;;;;;5072054;28;20217;-10
2022/11/28 09:37:58;;;;;;;;;;;17.00;73.30;;;;;;5072358;28;19937;-10
2022/11/28 09:40:43;;;;;;;;;;;16.90;73.50;;;;;;5071514;28;19916;-10
2022/11/28 09:43:29;;;;;;;;;;;16.90;73.50;;;;;;5071966;28;19973;-11
2022/11/28 09:45:55;;;;;;;;;;;16.90;74.00;;;;;;5054236;28;19961;-13
2022/11/28 09:48:37;;;;;;;;;;;16.80;74.10;;;;;;5090745;28;19915;-11
2022/11/28 09:51:24;;;;;;;;;;;16.70;74.50;;;;;;5071799;28;19923;-11
2022/11/28 09:53:58;;;;;;;;;;;16.70;74.70;;;;;;5072436;28;19927;-11
2022/11/28 09:56:24;;;;;;;;;;;16.70;75.00;;;;;;5091747;28;19908;-11
2022/11/28 09:58:49;;;;;;;;;;;16.60;75.40;;;;;;5073022;28;19931;-9
2022/11/28 10:01:25;;;;;;;;;;;16.60;75.90;;;;;;5073142;28;19943;-10
2022/11/28 10:03:51;;;;;;;;;;;16.60;76.50;;;;;;5090356;28;19919;-9
2022/11/28 10:06:19;;;;;;;;;;;16.50;76.70;;;;;;5091495;28;19904;-11
2022/11/28 10:08:47;;;;;;;;;;;16.50;76.90;;;;;;5089016;28;19912;-11
2022/11/28 10:11:19;;;;;;;;;;;16.50;77.20;;;;;;5089149;28;20001;-11
2022/11/28 10:14:21;;;;;;;;;;;16.40;77.70;;;;;;5071199;28;19914;-10
2022/11/28 10:16:53;;;;;;;;;;;16.40;78.40;;;;;;4987768;28;20292;-10
2022/11/28 10:19:23;;;;;;;;;;;16.40;79.80;;;;;;5071762;28;19916;-10
2022/11/28 10:21:54;;;;;;;;;;;16.40;80.00;;;;;;5089793;28;19915;-11
2022/11/28 10:24:23;;;;;;;;;;;16.40;79.80;;;;;;5090318;28;20180;-9
2022/11/28 10:26:50;;;;;;;;;;;16.30;79.90;;;;;;5089761;28;19908;-9
2022/11/28 10:29:29;;;;;;;;;;;16.30;79.90;;;;;;5088944;28;19908;-11
2022/11/28 10:31:56;;;;;;;;;;;16.30;79.90;;;;;;5088715;28;20164;-11
2022/11/28 10:34:29;;;;;;;;;;;16.30;79.90;;;;;;5086301;28;19969;-12
2022/11/28 10:37:04;;;;;;;;;;;16.30;80.40;;;;;;5086627;28;19959;-10
2022/11/28 10:39:29;;;;;;;;;;;16.30;79.90;;;;;;5090428;28;19998;-10
2022/11/28 10:42:10;;;;;;;;;;;16.30;79.80;;;;;;5071465;28;20458;-11
2022/11/28 10:44:48;;;;;;;;;;;16.30;79.80;;;;;;5072220;28;20003;-11
2022/11/28 10:47:24;;;;;;;;;;;16.30;79.70;;;;;;5089695;28;19908;-10
2022/11/28 10:49:57;;;;;;;;;;;16.30;79.50;;;;;;5087914;28;19996;-10
2022/11/28 10:52:27;;;;;;;;;;;16.40;79.30;;;;;;5087048;28;19912;-10
2022/11/28 10:55:02;;;;;;;;;;;16.40;79.10;;;;;;5087795;28;19908;-10
2022/11/28 10:57:33;;;;;;;;;;;16.40;78.80;;;;;;5068667;28;20166;-11
2022/11/28 11:00:05;;;;;;;;;;;16.50;78.50;;;;;;5085895;28;20301;-13
2022/11/28 11:02:37;;;;;;;;;;;16.60;78.20;;;;;;5089099;28;19916;-11
2022/11/28 11:05:04;;;;;;;;;;;16.70;78.50;;;;;;5068008;28;19915;-10
2022/11/28 11:07:30;;;;;;;;;;;16.70;78.20;;;;;;5087239;28;19958;-10
2022/11/28 11:10:12;;;;;;;;;;;16.70;78.30;;;;;;5087596;28;20025;-12
2022/11/28 11:12:39;;;;;;;;;;;16.80;77.30;;;;;;5068431;28;19923;-10
2022/11/28 11:15:37;;;;;;;;;;;16.90;76.80;;;;;;5088964;28;20211;-12
2022/11/28 11:18:04;;;;;;;;;;;16.90;76.40;;;;;;5028172;28;19914;-9
2022/11/28 11:20:32;;;;;;;;;;;17.00;75.70;;;;;;5068710;28;19908;-11
2022/11/28 11:23:10;;;;;;;;;;;17.10;75.30;;;;;;5087220;28;20250;-12
2022/11/28 11:25:36;;;;;;;;;;;17.10;75.00;;;;;;5069668;28;20177;-10
2022/11/28 11:28:03;;;;;;;;;;;17.20;74.70;;;;;;5067384;28;20262;-11
2022/11/28 11:30:31;;;;;;;;;;;17.10;74.40;;;;;;5087215;28;19912;-11
2022/11/28 11:32:58;;;;;;;;;;;17.20;74.40;;;;;;5089511;28;19923;-12
2022/11/28 11:35:28;;;;;;;;;;;17.10;74.80;;;;;;5070487;28;19935;-11
2022/11/28 11:38:14;;;;;;;;;;;17.20;75.30;;;;;;5087952;28;19938;-11
2022/11/28 11:40:39;;;;;;;;;;;17.20;75.30;;;;;;5086961;28;19910;-11
2022/11/28 11:43:22;;;;;;;;;;;17.20;75.20;;;;;;5091798;28;20079;-9
2022/11/28 11:46:02;;;;;;;;;;;17.10;75.00;;;;;;5086522;28;19908;-10
2022/11/28 11:48:38;;;;;;;;;;;17.10;75.10;;;;;;5086575;28;20615;-11
2022/11/28 11:51:04;;;;;;;;;;;17.10;75.30;;;;;;5070000;28;19924;-11
2022/11/28 11:53:29;;;;;;;;;;;17.10;75.60;;;;;;5087282;28;19926;-11
2022/11/28 11:55:57;;;;;;;;;;;17.10;76.10;;;;;;5088347;28;20014;-10
2022/11/28 11:58:24;;;;;;;;;;;17.00;76.00;;;;;;5092860;28;19974;-11
2022/11/28 12:00:50;;;;;;;;;;;17.00;76.20;;;;;;5096464;28;19931;-10
2022/11/28 12:03:24;;;;;;;;;;;17.00;76.40;;;;;;5075054;28;19912;-11
2022/11/28 12:05:52;;;;;;;;;;;16.90;76.70;;;;;;5087710;28;19948;-10
2022/11/28 12:08:34;;;;;;;;;;;16.80;76.90;;;;;;5088607;28;19940;-11
2022/11/28 12:11:13;;;;;;;;;;;16.80;77.20;;;;;;5090900;28;19974;-11
2022/11/28 12:13:39;;;;;;;;;;;16.80;77.50;;;;;;5090262;28;19908;-13
2022/11/28 12:16:23;;;;;;;;;;;16.70;77.80;;;;;;5091374;28;19969;-9
2022/11/28 12:18:48;;;;;;;;;;;16.70;77.90;;;;;;5092209;28;19912;-9
2022/11/28 12:21:21;;;;;;;;;;;16.70;78.10;;;;;;5109314;28;20028;-12
2022/11/28 12:23:50;;;;;;;;;;;16.70;78.30;;;;;;5088900;28;19916;-9
2022/11/28 12:26:35;;;;;;;;;;;16.70;78.50;;;;;;5089946;28;20000;-11
2022/11/28 12:29:06;;;;;;;;;;;16.70;78.60;;;;;;5107829;28;19908;-10
2022/11/28 12:31:38;;;;;;;;;;;16.70;78.60;;;;;;5089956;28;19922;-10
2022/11/28 12:34:13;;;;;;;;;;;16.70;78.70;;;;;;5108466;28;20251;-11
2022/11/28 12:36:55;;;;;;;;;;;16.60;78.80;;;;;;5090244;28;19936;-10
2022/11/28 12:39:30;;;;;;;;;;;16.70;78.80;;;;;;5110543;28;19933;-11
2022/11/28 12:42:04;;;;;;;;;;;16.70;79.00;;;;;;5092829;28;19908;-9
2022/11/28 12:44:32;;;;;;;;;;;16.70;78.90;;;;;;5092537;28;20003;-9
2022/11/28 12:47:06;;;;;;;;;;;16.60;78.90;;;;;;5107435;28;20128;-10
2022/11/28 12:49:41;;;;;;;;;;;16.70;79.30;;;;;;5106913;28;19908;-11
2022/11/28 12:52:25;;;;;;;;;;;16.70;79.20;;;;;;5108644;28;20189;-13
2022/11/28 12:55:06;;;;;;;;;;;16.70;79.10;;;;;;5107205;28;19947;-10
2022/11/28 12:57:38;;;;;;;;;;;16.70;79.30;;;;;;5106418;28;20314;-12
2022/11/28 13:00:17;;;;;;;;;;;16.60;79.20;;;;;;5105913;28;19919;-10
2022/11/28 13:03:01;;;;;;;;;;;16.70;79.50;;;;;;5088179;28;20111;-13
2022/11/28 13:05:35;;;;;;;;;;;16.60;79.60;;;;;;5106190;28;19908;-10
2022/11/28 13:08:16;;;;;;;;;;;16.60;80.00;;;;;;5087526;28;19939;-10
2022/11/28 13:10:47;;;;;;;;;;;16.60;80.30;;;;;;5107730;28;19922;-10
2022/11/28 13:13:17;;;;;;;;;;;16.50;80.50;;;;;;5108603;28;20265;-12
2022/11/28 13:15:51;;;;;;;;;;;16.50;80.90;;;;;;5089649;28;19915;-11
2022/11/28 13:18:36;;;;;;;;;;;16.40;81.10;;;;;;5107847;28;20375;-10
2022/11/28 13:21:09;;;;;;;;;;;16.40;81.40;;;;;;5090505;28;20208;-10
2022/11/28 13:23:34;;;;;;;;;;;16.40;81.70;;;;;;5108430;28;19915;-11
2022/11/28 13:26:21;;;;;;;;;;;16.40;81.90;;;;;;5088507;28;19908;-10
2022/11/28 13:28:50;;;;;;;;;;;16.30;81.90;;;;;;5091865;28;19968;-10
2022/11/28 13:31:16;;;;;;;;;;;16.30;81.90;;;;;;5092649;28;19912;-11
2022/11/28 13:33:55;;;;;;;;;;;16.30;82.00;;;;;;5090444;28;19908;-10
2022/11/28 13:36:28;;;;;;;;;;;16.30;82.10;;;;;;5091070;28;20135;-10
2022/11/28 13:38:57;;;;;;;;;;;16.30;82.20;;;;;;5089735;28;19915;-10
2022/11/28 13:41:25;;;;;;;;;;;16.30;82.20;;;;;;5107539;28;20144;-10
2022/11/28 13:44:01;;;;;;;;;;;16.30;82.20;;;;;;5107678;28;19908;-10
2022/11/28 13:46:27;;;;;;;;;;;16.30;82.30;;;;;;5083284;28;19915;-13
2022/11/28 13:49:00;;;;;;;;;;;16.30;82.30;;;;;;5088483;28;20360;-12
2022/11/28 13:51:27;;;;;;;;;;;16.30;82.30;;;;;;5108059;28;20255;-12
2022/11/28 13:54:11;;;;;;;;;;;16.40;82.20;;;;;;5108533;28;20296;-11
2022/11/28 13:56:37;;;;;;;;;;;16.40;82.10;;;;;;5107144;28;19908;-11
2022/11/28 13:59:03;;;;;;;;;;;16.40;82.20;;;;;;5106721;28;19972;-11
2022/11/28 14:01:35;;;;;;;;;;;16.40;82.10;;;;;;5089327;28;19919;-12
2022/11/28 14:04:06;;;;;;;;;;;16.40;82.20;;;;;;5108372;28;19998;-11
2022/11/28 14:06:38;;;;;;;;;;;16.50;82.20;;;;;;5108023;28;20239;-11
2022/11/28 14:09:06;;;;;;;;;;;16.50;82.10;;;;;;5107962;28;20261;-11
2022/11/28 14:11:32;;;;;;;;;;;16.50;82.10;;;;;;5090556;28;20292;-10
2022/11/28 14:14:10;;;;;;;;;;;16.50;81.90;;;;;;5108466;28;20004;-11
2022/11/28 14:16:38;;;;;;;;;;;16.60;81.90;;;;;;5088932;28;19908;-11
2022/11/28 14:19:13;;;;;;;;;;;16.60;81.90;;;;;;5090720;28;19912;-11
2022/11/28 14:21:39;;;;;;;;;;;16.60;81.80;;;;;;5109670;28;19908;-11
2022/11/28 14:24:14;;;;;;;;;;;16.60;81.60;;;;;;5090579;28;19919;-10
2022/11/28 14:26:41;;;;;;;;;;;16.70;81.60;;;;;;5088162;28;19931;-9
2022/11/28 14:29:18;;;;;;;;;;;16.70;81.70;;;;;;5090400;28;20209;-12
2022/11/28 14:31:45;;;;;;;;;;;16.70;81.70;;;;;;5087571;28;20014;-11
2022/11/28 14:34:30;;;;;;;;;;;16.70;81.60;;;;;;5089531;28;19908;-11
2022/11/28 14:37:25;;;;;;;;;;;16.70;81.40;;;;;;5089640;28;19915;-10
2022/11/28 14:39:52;;;;;;;;;;;16.70;81.40;;;;;;5086550;28;20053;-11
2022/11/28 14:42:20;;;;;;;;;;;16.70;81.40;;;;;;5088236;28;20178;-12
2022/11/28 14:44:46;;;;;;;;;;;16.70;81.30;;;;;;5088253;28;20156;-10
2022/11/28 14:47:17;;;;;;;;;;;16.70;81.30;;;;;;5108004;28;19918;-11